Tyrone, Oklahoma
Current Conditions -  °F | °C
As of 4:55 PM on Friday 19 Dec 2014 (Local Time) from KLBL Reporting Station
Clear Clear  
Wind Chill: 39°   Ceiling: Unl
Heat Index: 43°   Visibility: 10mi
Dew Point: 34°   Wind: 6mph
Humidity: 70%   Direction: 220°SW
Pressure: 30.13"   Gusts: NA
Location:  36.95°N, 101.07°W
Report Text: KLBL 192255Z AUTO 22005KT 10SM CLR 06/01 A3013 RMK AO1
Loading
Personal Weather Stations






























Interactive Weather Map New forecast layout! Learn more

10-Day Weather Forecast

Advertisements
Track Severe Weather on mobile